Time;durP1;ratioP1;P1;durP2;ratioP2;P2;SDS_P1;SDS_P2;PMS_P1;PMS_P2;Temp;Humidity;BMP_temperature;BMP_pressure;BME280_temperature;BME280_humidity;BME280_pressure;Samples;Min_cycle;Max_cycle;Signal;HPM_P1;HPM_P2
2023/03/16 00:00:41;;;;;;;11.05;3.88;;;3.40;99.90;;;;;;5153893;27;20074;-63
2023/03/16 00:03:08;;;;;;;6.20;3.58;;;3.40;99.90;;;;;;5153660;27;20051;-64
2023/03/16 00:05:34;;;;;;;6.63;3.50;;;3.20;99.90;;;;;;5153595;27;20053;-63
2023/03/16 00:08:00;;;;;;;6.57;3.38;;;3.30;99.90;;;;;;5153995;27;20038;-64
2023/03/16 00:10:26;;;;;;;8.55;3.50;;;3.30;99.90;;;;;;5153598;27;20153;-65
2023/03/16 00:12:55;;;;;;;12.02;3.55;;;;;;;;;;5153623;27;20051;-64
2023/03/16 00:15:21;;;;;;;11.38;3.60;;;3.40;99.90;;;;;;5153749;27;20043;-64
2023/03/16 00:17:47;;;;;;;5.47;3.60;;;3.60;99.90;;;;;;5153498;27;20130;-64
2023/03/16 00:20:17;;;;;;;10.50;3.08;;;3.60;99.90;;;;;;5134948;27;20130;-64
2023/03/16 00:22:43;;;;;;;9.00;3.20;;;3.30;99.90;;;;;;5153453;27;20125;-65
2023/03/16 00:25:10;;;;;;;;;;;3.60;99.90;;;;;;5153811;27;20101;-64
2023/03/16 00:27:36;;;;;;;8.17;2.77;;;3.70;99.90;;;;;;5153511;27;19926;-64
2023/03/16 00:30:03;;;;;;;8.00;3.40;;;3.20;99.90;;;;;;5153502;27;20288;-64
2023/03/16 00:32:35;;;;;;;9.15;3.60;;;3.40;99.90;;;;;;5152269;27;20050;-64
2023/03/16 00:35:02;;;;;;;6.53;2.88;;;3.50;99.90;;;;;;5153589;27;20055;-64
2023/03/16 00:37:28;;;;;;;11.40;3.40;;;3.70;99.90;;;;;;5135057;27;20435;-65
2023/03/16 00:39:55;;;;;;;;;;;3.70;99.90;;;;;;5154003;27;20118;-64
2023/03/16 00:42:26;;;;;;;8.38;3.50;;;;;;;;;;5153246;27;19919;-64
2023/03/16 00:44:58;;;;;;;6.15;3.03;;;3.40;99.90;;;;;;5153157;27;20046;-64
2023/03/16 00:47:27;;;;;;;6.88;3.00;;;3.60;99.90;;;;;;5153114;27;20123;-64
2023/03/16 00:49:53;;;;;;;7.30;3.08;;;3.50;99.90;;;;;;5153249;27;20116;-64
2023/03/16 00:52:21;;;;;;;7.07;3.00;;;3.50;99.90;;;;;;5152684;27;20543;-64
2023/03/16 00:54:47;;;;;;;6.45;3.20;;;3.40;99.90;;;;;;5153205;27;20391;-64
2023/03/16 00:57:16;;;;;;;9.02;2.85;;;3.20;99.90;;;;;;5153075;27;20042;-64
2023/03/16 00:59:42;;;;;;;6.20;3.58;;;3.40;99.90;;;;;;5153244;27;20065;-64
2023/03/16 01:02:08;;;;;;;7.38;3.30;;;3.20;99.90;;;;;;5153030;27;20042;-64
2023/03/16 01:04:34;;;;;;;7.25;2.80;;;3.20;99.90;;;;;;5134593;27;20092;-65
2023/03/16 01:07:02;;;;;;;7.75;3.13;;;3.40;99.90;;;;;;5152819;27;20058;-64
2023/03/16 01:09:27;;;;;;;5.05;3.15;;;3.50;99.90;;;;;;5152800;27;20042;-64
2023/03/16 01:11:53;;;;;;;4.75;3.05;;;3.40;99.90;;;;;;5152744;27;20228;-65
2023/03/16 01:14:20;;;;;;;5.28;2.85;;;3.50;99.90;;;;;;5152469;27;20042;-64
2023/03/16 01:16:47;;;;;;;6.43;2.95;;;3.40;99.90;;;;;;5153013;27;20047;-64
2023/03/16 01:19:13;;;;;;;8.57;3.25;;;3.70;99.90;;;;;;5152932;27;20046;-64
2023/03/16 01:21:41;;;;;;;7.72;3.08;;;3.50;99.90;;;;;;5134271;27;20042;-64
2023/03/16 01:24:07;;;;;;;6.93;3.10;;;3.60;99.90;;;;;;5153023;27;20101;-64
2023/03/16 01:26:33;;;;;;;;;;;3.70;99.90;;;;;;5153108;27;20415;-64
2023/03/16 01:28:59;;;;;;;6.30;3.45;;;;;;;;;;5152810;27;19962;-64
2023/03/16 01:31:25;;;;;;;9.85;3.60;;;3.30;99.90;;;;;;5152640;27;20043;-64
2023/03/16 01:33:51;;;;;;;6.22;3.58;;;3.30;99.90;;;;;;5152476;27;20490;-64
2023/03/16 01:36:18;;;;;;;9.55;3.17;;;3.30;99.90;;;;;;5152560;27;20054;-64
2023/03/16 01:38:44;;;;;;;8.07;4.03;;;3.70;99.90;;;;;;5152776;27;20130;-64
2023/03/16 01:41:12;;;;;;;9.40;3.88;;;;;;;;;;5117115;27;20052;-64
2023/03/16 01:43:40;;;;;;;7.68;3.67;;;3.10;99.90;;;;;;5155871;27;20043;-64
2023/03/16 01:46:06;;;;;;;11.25;3.60;;;3.60;99.90;;;;;;5156495;27;20050;-64
2023/03/16 01:48:39;;;;;;;7.53;3.63;;;;;;;;;;5156322;27;20431;-64
2023/03/16 01:51:19;;;;;;;8.27;3.47;;;3.20;99.90;;;;;;5156472;27;20042;-64
2023/03/16 01:53:48;;;;;;;8.43;4.25;;;3.30;99.90;;;;;;5156243;27;20099;-64
2023/03/16 01:56:18;;;;;;;7.80;3.72;;;3.40;99.90;;;;;;5156361;27;20050;-65
2023/03/16 01:58:45;;;;;;;8.00;4.00;;;3.40;99.90;;;;;;5156143;27;20049;-64
2023/03/16 02:01:13;;;;;;;8.55;4.07;;;3.20;99.90;;;;;;5137586;27;20054;-64
2023/03/16 02:03:40;;;;;;;7.03;4.05;;;3.40;99.90;;;;;;5156060;27;20051;-66
2023/03/16 02:06:14;;;;;;;11.18;4.13;;;3.40;99.90;;;;;;5156251;27;20114;-64
2023/03/16 02:08:41;;;;;;;10.02;4.28;;;3.60;99.90;;;;;;5156027;27;20046;-64
2023/03/16 02:11:08;;;;;;;8.52;4.35;;;3.30;99.90;;;;;;5156187;27;20051;-64
2023/03/16 02:13:35;;;;;;;6.57;4.20;;;3.20;99.90;;;;;;5156091;27;20058;-64
2023/03/16 02:16:04;;;;;;;8.68;4.03;;;3.10;99.90;;;;;;5156024;27;20078;-64
2023/03/16 02:18:31;;;;;;;6.35;3.90;;;3.40;99.90;;;;;;5155929;27;20062;-64
2023/03/16 02:21:16;;;;;;;10.00;4.68;;;3.50;99.90;;;;;;5155971;27;20047;-64
2023/03/16 02:23:45;;;;;;;10.18;4.20;;;3.50;99.90;;;;;;5155959;27;20047;-64
2023/03/16 02:26:31;;;;;;;8.88;4.18;;;3.50;99.90;;;;;;5137190;27;20439;-64
2023/03/16 02:29:36;;;;;;;9.35;4.15;;;3.30;99.90;;;;;;5137492;27;20100;-64
2023/03/16 02:32:04;;;;;;;6.50;4.28;;;3.50;99.90;;;;;;5137405;27;20050;-63
2023/03/16 02:34:30;;;;;;;6.35;4.43;;;;;;;;;;5155651;27;20094;-64
2023/03/16 02:36:57;;;;;;;;;;;3.50;99.90;;;;;;5155862;27;20482;-64
2023/03/16 02:39:23;;;;;;;8.80;4.53;;;3.70;99.90;;;;;;5155609;27;19929;-64
2023/03/16 02:41:49;;;;;;;8.13;4.32;;;3.60;99.90;;;;;;5155499;27;20141;-64
2023/03/16 02:44:34;;;;;;;9.88;4.95;;;3.70;99.90;;;;;;5155437;27;20467;-64
2023/03/16 02:47:05;;;;;;;13.95;4.68;;;3.80;99.90;;;;;;5155488;27;20042;-65
2023/03/16 02:49:41;;;;;;;8.90;4.63;;;3.90;99.90;;;;;;5155403;27;20448;-63
2023/03/16 02:52:07;;;;;;;9.27;4.68;;;4.00;99.90;;;;;;5155218;27;20134;-64
2023/03/16 02:54:33;;;;;;;8.15;4.70;;;3.60;99.90;;;;;;5154769;27;20050;-64
2023/03/16 02:56:59;;;;;;;8.32;4.55;;;3.90;99.90;;;;;;5136799;27;20050;-64
2023/03/16 02:59:24;;;;;;;9.70;4.85;;;3.90;99.90;;;;;;5154963;27;20042;-65
2023/03/16 03:01:50;;;;;;;12.77;5.05;;;3.80;99.90;;;;;;5155058;27;20051;-64
2023/03/16 03:04:16;;;;;;;6.63;4.93;;;4.10;99.90;;;;;;5155484;27;20047;-64
2023/03/16 03:06:42;;;;;;;7.85;4.53;;;3.90;99.90;;;;;;5155339;27;20462;-64
2023/03/16 03:09:10;;;;;;;9.18;4.63;;;3.70;99.90;;;;;;5119634;27;20050;-64
2023/03/16 03:11:36;;;;;;;8.18;4.78;;;3.90;99.90;;;;;;5155323;27;20058;-64
2023/03/16 03:14:02;;;;;;;8.00;4.80;;;4.00;99.90;;;;;;5136804;27;20042;-64
2023/03/16 03:16:28;;;;;;;9.18;4.82;;;2.00;99.90;;;;;;5136910;27;20122;-64
2023/03/16 03:18:54;;;;;;;9.50;4.82;;;3.90;99.90;;;;;;5155170;27;20034;-64
2023/03/16 03:21:21;;;;;;;8.70;5.25;;;4.30;99.90;;;;;;5155074;27;20362;-65
2023/03/16 03:23:46;;;;;;;;;;;3.80;99.90;;;;;;5137097;27;20054;-64
2023/03/16 03:26:16;;;;;;;8.65;5.22;;;4.10;99.90;;;;;;5154959;27;19923;-64
2023/03/16 03:28:42;;;;;;;8.25;5.18;;;3.90;99.90;;;;;;5154792;27;20050;-64
2023/03/16 03:31:18;;;;;;;;;;;4.40;99.90;;;;;;5155249;27;20047;-65
2023/03/16 03:33:44;;;;;;;10.55;5.28;;;3.90;99.90;;;;;;5154422;27;19922;-64
2023/03/16 03:36:10;;;;;;;13.93;5.82;;;4.00;99.90;;;;;;5154709;27;20089;-64
2023/03/16 03:38:36;;;;;;;10.02;5.43;;;4.10;99.90;;;;;;5154770;27;20125;-64
2023/03/16 03:41:02;;;;;;;;;;;4.20;99.90;;;;;;5155458;27;20068;-64
2023/03/16 03:43:28;;;;;;;7.28;5.50;;;4.00;99.90;;;;;;5154670;27;19926;-66
2023/03/16 03:45:58;;;;;;;10.15;5.60;;;3.70;99.90;;;;;;5154543;27;20039;-64
2023/03/16 03:48:24;;;;;;;10.55;6.00;;;4.20;99.90;;;;;;5154419;27;20052;-64
2023/03/16 03:50:50;;;;;;;11.35;5.93;;;4.00;99.90;;;;;;5136035;27;20042;-64
2023/03/16 03:53:16;;;;;;;9.00;6.03;;;4.10;99.90;;;;;;5154447;27;20069;-64
2023/03/16 03:55:42;;;;;;;11.68;5.85;;;4.00;99.90;;;;;;5154282;27;20039;-64
2023/03/16 03:58:08;;;;;;;16.33;6.30;;;3.80;99.90;;;;;;5154309;27;20141;-64
2023/03/16 04:00:34;;;;;;;11.48;5.82;;;4.10;99.90;;;;;;5154309;27;20276;-64
2023/03/16 04:03:00;;;;;;;;;;;4.30;99.90;;;;;;5136201;27;20051;-64
2023/03/16 04:05:26;;;;;;;8.90;6.55;;;4.10;99.90;;;;;;5153685;27;20006;-64
2023/03/16 04:07:56;;;;;;;10.13;6.40;;;4.00;99.90;;;;;;5153940;27;20455;-64
2023/03/16 04:10:27;;;;;;;11.10;6.43;;;3.90;99.90;;;;;;5154059;27;20043;-64
2023/03/16 04:12:55;;;;;;;12.90;6.70;;;4.00;99.90;;;;;;5154041;27;20129;-64
2023/03/16 04:15:21;;;;;;;11.52;6.50;;;4.10;99.90;;;;;;5154062;27;20061;-65
2023/03/16 04:17:48;;;;;;;12.57;7.03;;;4.00;99.90;;;;;;5154018;27;20482;-64
2023/03/16 04:20:18;;;;;;;14.85;7.13;;;4.10;99.90;;;;;;5154044;27;20042;-64
2023/03/16 04:22:45;;;;;;;10.07;7.13;;;4.10;99.90;;;;;;5154061;27;20093;-65
2023/03/16 04:25:13;;;;;;;14.43;6.97;;;4.20;99.90;;;;;;5154077;27;20735;-64
2023/03/16 04:27:39;;;;;;;10.40;6.65;;;3.90;99.90;;;;;;5153942;27;20043;-64
2023/03/16 04:30:11;;;;;;;14.25;6.72;;;4.10;99.90;;;;;;5153918;27;20099;-64
2023/03/16 04:32:37;;;;;;;13.13;7.40;;;4.00;99.90;;;;;;5153665;27;20243;-64
2023/03/16 04:35:03;;;;;;;;;;;4.20;99.90;;;;;;5154264;27;20050;-64
2023/03/16 04:37:29;;;;;;;9.20;6.90;;;3.90;99.90;;;;;;5153704;27;19925;-64
2023/03/16 04:39:55;;;;;;;12.55;8.15;;;4.00;99.90;;;;;;5153632;27;20396;-64
2023/03/16 04:42:21;;;;;;;14.60;8.20;;;4.20;99.90;;;;;;5153665;27;20052;-64
2023/03/16 04:44:47;;;;;;;;;;;4.20;99.90;;;;;;5154065;27;20091;-64
2023/03/16 04:47:14;;;;;;;13.05;7.30;;;4.60;99.90;;;;;;5153623;27;20320;-64
2023/03/16 04:49:41;;;;;;;15.50;7.03;;;4.10;99.90;;;;;;5153585;27;20047;-64
2023/03/16 04:52:07;;;;;;;11.80;7.55;;;4.30;99.90;;;;;;5153569;27;20505;-64
2023/03/16 04:54:33;;;;;;;13.57;8.20;;;4.10;99.90;;;;;;5153481;27;20408;-64
2023/03/16 04:56:59;;;;;;;11.98;7.28;;;4.50;99.90;;;;;;5153514;27;20124;-64
2023/03/16 04:59:25;;;;;;;16.67;8.07;;;4.00;99.90;;;;;;5153490;27;20128;-64
2023/03/16 05:01:52;;;;;;;;;;;4.20;99.90;;;;;;5153871;27;20085;-65
2023/03/16 05:04:20;;;;;;;14.07;7.70;;;;;;;;;;5153389;27;19927;-65
2023/03/16 05:06:47;;;;;;;16.75;7.50;;;4.20;99.90;;;;;;5153429;27;20493;-66
2023/03/16 05:09:13;;;;;;;13.07;7.10;;;;;;;;;;5153379;27;20042;-64
2023/03/16 05:11:38;;;;;;;12.15;8.00;;;4.10;99.90;;;;;;5153482;27;20136;-65
2023/03/16 05:14:05;;;;;;;14.80;7.40;;;;;;;;;;5153345;27;20046;-64
2023/03/16 05:16:31;;;;;;;12.02;7.75;;;4.10;99.90;;;;;;5153339;27;20159;-64
2023/03/16 05:18:58;;;;;;;10.45;7.15;;;4.10;99.90;;;;;;5138727;27;20070;-66
2023/03/16 05:21:30;;;;;;;12.68;7.35;;;4.30;99.90;;;;;;5139093;27;20054;-65
2023/03/16 05:23:56;;;;;;;13.85;7.72;;;3.80;99.90;;;;;;5157348;27;20050;-64
2023/03/16 05:26:25;;;;;;;17.95;7.45;;;4.10;99.90;;;;;;5157300;27;20047;-64
2023/03/16 05:28:50;;;;;;;12.65;7.68;;;3.80;99.90;;;;;;5157199;27;20042;-64
2023/03/16 05:31:17;;;;;;;13.85;7.63;;;4.50;99.90;;;;;;5157361;27;20050;-64
2023/03/16 05:33:43;;;;;;;11.30;6.95;;;3.80;99.90;;;;;;5157037;27;20054;-64
2023/03/16 05:36:10;;;;;;;14.07;7.68;;;4.00;99.90;;;;;;5157128;27;20183;-64
2023/03/16 05:38:35;;;;;;;;;;;4.20;99.90;;;;;;5157544;27;20440;-64
2023/03/16 05:41:03;;;;;;;20.73;7.60;;;4.00;99.90;;;;;;5157033;27;19923;-64
2023/03/16 05:43:29;;;;;;;14.73;7.38;;;4.50;99.90;;;;;;5156925;27;20045;-64
2023/03/16 05:45:56;;;;;;;10.13;7.60;;;4.10;99.90;;;;;;5156909;27;20092;-64
2023/03/16 05:48:24;;;;;;;11.20;7.63;;;4.00;99.90;;;;;;5138593;27;20042;-64
2023/03/16 05:50:51;;;;;;;15.65;8.15;;;3.90;99.90;;;;;;5156940;27;20049;-64
2023/03/16 05:53:17;;;;;;;13.88;7.53;;;4.40;99.90;;;;;;5156947;27;20035;-64
2023/03/16 05:55:43;;;;;;;13.38;7.68;;;4.10;99.90;;;;;;5156808;27;20047;-64
2023/03/16 05:58:09;;;;;;;13.32;8.05;;;4.30;99.90;;;;;;5156719;27;20049;-64
2023/03/16 06:00:34;;;;;;;15.18;7.68;;;4.00;99.90;;;;;;5156667;27;20085;-64
2023/03/16 06:03:00;;;;;;;12.40;7.85;;;3.70;99.90;;;;;;5156649;27;20486;-64
2023/03/16 06:05:27;;;;;;;12.73;8.43;;;4.00;99.90;;;;;;5138041;27;20093;-64
2023/03/16 06:07:53;;;;;;;14.43;7.60;;;;;;;;;;5156579;27;20047;-65
2023/03/16 06:10:19;;;;;;;13.30;7.65;;;;;;;;;;5156452;27;20223;-64
2023/03/16 06:12:45;;;;;;;12.82;8.52;;;3.60;99.90;;;;;;5156630;27;20050;-64
2023/03/16 06:15:12;;;;;;;12.65;8.25;;;4.20;99.90;;;;;;5156454;27;20043;-64
2023/03/16 06:17:38;;;;;;;;;;;4.30;99.90;;;;;;5156854;27;20058;-65
2023/03/16 06:20:09;;;;;;;10.18;7.50;;;4.20;99.90;;;;;;5156385;27;19997;-64
2023/03/16 06:22:37;;;;;;;12.38;8.00;;;4.10;99.90;;;;;;5148198;27;20047;-64
2023/03/16 06:25:03;;;;;;;20.00;8.40;;;4.10;99.90;;;;;;5155649;27;20442;-64
2023/03/16 06:27:29;;;;;;;12.73;7.50;;;;;;;;;;5154871;27;20111;-64
2023/03/16 06:29:55;;;;;;;13.18;7.95;;;4.00;99.90;;;;;;5154058;27;20078;-64
2023/03/16 06:32:21;;;;;;;10.68;7.32;;;4.00;99.90;;;;;;5155157;27;20076;-64
2023/03/16 06:34:47;;;;;;;13.57;7.00;;;4.00;99.90;;;;;;5155497;27;20055;-65
2023/03/16 06:37:13;;;;;;;13.38;8.15;;;4.00;99.90;;;;;;5154582;27;20653;-67
2023/03/16 06:39:39;;;;;;;14.75;8.20;;;4.20;99.90;;;;;;5155502;27;20043;-65
2023/03/16 06:42:04;;;;;;;14.98;7.65;;;4.30;99.90;;;;;;5155075;27;20046;-64
2023/03/16 06:44:31;;;;;;;12.27;7.20;;;4.10;99.90;;;;;;5154801;27;20039;-64
2023/03/16 06:46:57;;;;;;;12.07;7.50;;;4.30;99.90;;;;;;5155008;27;20042;-64
2023/03/16 06:49:23;;;;;;;12.82;7.60;;;4.20;99.90;;;;;;5155117;27;20054;-65
2023/03/16 06:51:48;;;;;;;14.80;7.70;;;4.50;99.90;;;;;;5154214;27;20046;-65
2023/03/16 06:54:14;;;;;;;13.45;7.50;;;4.20;99.90;;;;;;5136541;27;20046;-65
2023/03/16 06:56:40;;;;;;;10.27;7.20;;;4.00;99.90;;;;;;5154854;27;20049;-64
2023/03/16 06:59:06;;;;;;;10.73;6.87;;;4.20;99.90;;;;;;5154415;27;20043;-65
2023/03/16 07:01:32;;;;;;;11.55;7.30;;;4.50;99.90;;;;;;5154793;27;20328;-65
2023/03/16 07:03:57;;;;;;;12.50;6.53;;;4.20;99.90;;;;;;5136294;27;20051;-67
2023/03/16 07:06:23;;;;;;;12.57;7.35;;;4.50;99.90;;;;;;5153568;27;20466;-65
2023/03/16 07:08:49;;;;;;;12.95;7.75;;;4.40;99.90;;;;;;5154641;27;20046;-65
2023/03/16 07:11:15;;;;;;;11.07;7.05;;;4.60;99.90;;;;;;5154569;27;20050;-64
2023/03/16 07:13:41;;;;;;;10.68;6.93;;;4.50;99.90;;;;;;5154208;27;20043;-65
2023/03/16 07:16:07;;;;;;;13.88;7.65;;;4.30;99.90;;;;;;5154560;27;20078;-64
2023/03/16 07:18:34;;;;;;;13.88;7.28;;;4.20;99.90;;;;;;5154201;27;20554;-66
2023/03/16 07:21:00;;;;;;;12.07;6.95;;;4.20;99.90;;;;;;5153685;27;20365;-64
2023/03/16 07:23:26;;;;;;;11.45;7.00;;;4.70;99.90;;;;;;5154473;27;20057;-65
2023/03/16 07:25:52;;;;;;;12.75;7.32;;;4.70;99.90;;;;;;5154329;27;20471;-64
2023/03/16 07:28:18;;;;;;;13.90;7.15;;;4.60;99.90;;;;;;5134671;27;20466;-64
2023/03/16 07:30:45;;;;;;;14.27;7.30;;;5.00;99.90;;;;;;5154318;27;20058;-65
2023/03/16 07:33:11;;;;;;;13.98;7.55;;;4.60;99.90;;;;;;5134697;27;20099;-64
2023/03/16 07:35:37;;;;;;;16.42;7.25;;;4.80;99.90;;;;;;5153497;27;20452;-65
2023/03/16 07:38:03;;;;;;;10.18;6.65;;;4.40;99.90;;;;;;5134588;27;20045;-65
2023/03/16 07:40:29;;;;;;;10.65;7.78;;;4.60;99.90;;;;;;5151805;27;20589;-65
2023/03/16 07:42:54;;;;;;;12.48;7.82;;;4.50;99.90;;;;;;5153792;27;20047;-65
2023/03/16 07:45:20;;;;;;;12.75;7.57;;;4.70;99.90;;;;;;5154537;27;20505;-64
2023/03/16 07:47:46;;;;;;;13.05;7.57;;;5.00;99.90;;;;;;5118544;27;20516;-64
2023/03/16 07:50:14;;;;;;;11.65;6.90;;;4.90;99.90;;;;;;5154396;27;20046;-65
2023/03/16 07:52:40;;;;;;;11.43;7.28;;;5.00;99.90;;;;;;5136134;27;20054;-64
2023/03/16 07:55:06;;;;;;;15.77;7.32;;;5.00;99.90;;;;;;5118857;27;20051;-64
2023/03/16 07:57:32;;;;;;;;;;;5.10;99.90;;;;;;5154723;27;20121;-64
2023/03/16 07:59:58;;;;;;;12.88;7.32;;;5.00;99.90;;;;;;5154290;27;20021;-65
2023/03/16 08:02:24;;;;;;;10.73;7.07;;;5.00;99.90;;;;;;5154378;27;20130;-65
2023/03/16 08:04:50;;;;;;;14.07;7.53;;;4.90;99.90;;;;;;5154339;27;20072;-64
2023/03/16 08:07:16;;;;;;;13.57;7.95;;;5.10;99.90;;;;;;5154259;27;20197;-64
2023/03/16 08:09:42;;;;;;;10.60;7.07;;;5.20;99.90;;;;;;5154087;27;20081;-64
2023/03/16 08:12:09;;;;;;;11.75;7.28;;;5.30;99.90;;;;;;5154130;27;20163;-65
2023/03/16 08:14:35;;;;;;;14.20;7.60;;;5.10;99.90;;;;;;5154074;27;20130;-65
2023/03/16 08:17:03;;;;;;;12.30;7.18;;;5.00;99.90;;;;;;5135953;27;20074;-64
2023/03/16 08:19:29;;;;;;;10.43;6.90;;;5.30;99.90;;;;;;5154337;27;20047;-66
2023/03/16 08:21:56;;;;;;;13.15;6.82;;;5.30;99.90;;;;;;5153815;27;20486;-64
2023/03/16 08:24:22;;;;;;;10.00;6.50;;;5.30;99.90;;;;;;5153987;27;20042;-64
2023/03/16 08:26:47;;;;;;;13.68;7.28;;;5.30;99.90;;;;;;5153944;27;20057;-65
2023/03/16 08:29:13;;;;;;;12.13;7.45;;;5.20;99.90;;;;;;5135249;27;20084;-64
2023/03/16 08:31:41;;;;;;;12.52;6.70;;;5.10;99.90;;;;;;5135431;27;20055;-65
2023/03/16 08:34:07;;;;;;;12.82;7.70;;;5.00;99.90;;;;;;5153534;27;20063;-64
2023/03/16 08:36:33;;;;;;;12.18;7.30;;;5.30;99.90;;;;;;5153774;27;20081;-64
2023/03/16 08:38:59;;;;;;;12.00;7.20;;;5.20;99.90;;;;;;5153697;27;20169;-65
2023/03/16 08:41:29;;;;;;;11.60;7.22;;;5.10;99.90;;;;;;5153749;27;20058;-64
2023/03/16 08:43:56;;;;;;;9.60;6.85;;;5.00;99.90;;;;;;5153699;27;20050;-65
2023/03/16 08:46:23;;;;;;;9.90;6.95;;;5.10;99.90;;;;;;5153533;27;20065;-64
2023/03/16 08:48:48;;;;;;;;;;;5.40;99.90;;;;;;5153924;27;20078;-64
2023/03/16 08:51:16;;;;;;;14.32;7.50;;;5.20;99.90;;;;;;5153093;27;19981;-64
2023/03/16 08:53:43;;;;;;;10.75;6.70;;;5.20;99.90;;;;;;5153048;27;20053;-64
2023/03/16 08:56:11;;;;;;;14.43;7.35;;;5.20;99.90;;;;;;5153177;27;20133;-64
2023/03/16 08:58:38;;;;;;;14.73;6.97;;;5.20;99.90;;;;;;5153448;27;20054;-64
2023/03/16 09:01:04;;;;;;;13.02;7.35;;;5.20;99.90;;;;;;5153419;27;20101;-64
2023/03/16 09:03:34;;;;;;;14.93;7.50;;;5.20;99.90;;;;;;5153299;27;20043;-65
2023/03/16 09:06:05;;;;;;;13.38;6.65;;;5.10;99.90;;;;;;5135971;27;20055;-65
2023/03/16 09:08:32;;;;;;;13.60;8.18;;;5.30;99.90;;;;;;5146901;27;20080;-64
2023/03/16 09:11:02;;;;;;;12.85;7.35;;;5.40;99.90;;;;;;5150565;27;20051;-65
2023/03/16 09:13:29;;;;;;;12.13;6.90;;;5.20;99.90;;;;;;5151914;27;20051;-65
2023/03/16 09:15:55;;;;;;;17.40;6.78;;;5.10;99.90;;;;;;5152531;27;20498;-65
2023/03/16 09:18:24;;;;;;;11.02;6.32;;;5.20;99.90;;;;;;5153009;27;20375;-65
2023/03/16 09:20:51;;;;;;;14.10;7.40;;;5.20;99.90;;;;;;5153067;27;20050;-66
2023/03/16 09:23:18;;;;;;;15.25;7.45;;;;;;;;;;5133865;27;20046;-65
2023/03/16 09:25:44;;;;;;;13.60;7.20;;;5.30;99.90;;;;;;5152927;27;20067;-65
2023/03/16 09:28:10;;;;;;;13.40;7.68;;;5.30;99.90;;;;;;5152934;27;20055;-66
2023/03/16 09:30:36;;;;;;;15.02;6.63;;;5.40;99.90;;;;;;5152167;27;20034;-65
2023/03/16 09:33:03;;;;;;;11.52;7.25;;;5.20;99.90;;;;;;5152844;27;20043;-65
2023/03/16 09:35:29;;;;;;;14.23;7.68;;;5.50;99.90;;;;;;5133760;27;20063;-65
2023/03/16 09:37:56;;;;;;;12.88;7.65;;;5.50;99.90;;;;;;5131226;27;20042;-65
2023/03/16 09:40:25;;;;;;;13.40;8.07;;;5.40;99.90;;;;;;5151402;27;20099;-67
2023/03/16 09:43:09;;;;;;;12.20;7.68;;;;;;;;;;5152583;27;20509;-65
2023/03/16 09:45:47;;;;;;;10.85;7.10;;;5.60;99.90;;;;;;5150875;27;20038;-70
2023/03/16 09:48:15;;;;;;;13.48;7.05;;;5.90;99.90;;;;;;5147260;27;20042;-65
2023/03/16 09:50:42;;;;;;;12.80;7.18;;;5.50;99.90;;;;;;5131809;27;20045;-65
2023/03/16 09:53:28;;;;;;;12.75;7.40;;;5.90;99.90;;;;;;5113628;28;20051;-65
2023/03/16 09:56:29;;;;;;;14.32;7.72;;;6.30;99.90;;;;;;5131815;27;20076;-65
2023/03/16 09:58:55;;;;;;;12.77;7.07;;;6.00;99.90;;;;;;5131478;27;20589;-69
2023/03/16 10:01:44;;;;;;;15.77;7.60;;;5.70;99.90;;;;;;5113560;28;20049;-65
2023/03/16 10:04:31;;;;;;;12.10;6.65;;;6.20;99.90;;;;;;5121755;27;20058;-66
2023/03/16 10:07:03;;;;;;;14.30;7.78;;;6.20;99.90;;;;;;5135506;27;20043;-64
2023/03/16 10:09:37;;;;;;;12.73;6.85;;;6.00;99.90;;;;;;5135252;27;20047;-66
2023/03/16 10:12:05;;;;;;;12.35;7.20;;;6.10;99.90;;;;;;5117008;27;20394;-64
2023/03/16 10:14:55;;;;;;;16.23;7.25;;;6.20;99.90;;;;;;5125386;27;20087;-63
2023/03/16 10:17:29;;;;;;;17.83;7.05;;;6.20;99.90;;;;;;5135167;27;20092;-66
2023/03/16 10:20:07;;;;;;;11.65;6.85;;;6.30;99.90;;;;;;5135146;27;20050;-64
2023/03/16 10:22:39;;;;;;;13.50;8.10;;;6.60;99.90;;;;;;5135112;27;20095;-64
2023/03/16 10:25:27;;;;;;;11.35;6.95;;;6.00;99.90;;;;;;5143768;27;20087;-66
2023/03/16 10:27:53;;;;;;;10.93;7.00;;;6.10;99.90;;;;;;5147237;27;20046;-65
2023/03/16 10:30:36;;;;;;;12.77;7.13;;;6.30;99.90;;;;;;5119609;27;20061;-69
2023/03/16 10:33:12;;;;;;;17.75;8.52;;;6.10;99.90;;;;;;5141926;27;20047;-66
2023/03/16 10:36:04;;;;;;;13.40;7.20;;;6.00;99.90;;;;;;5134914;27;20134;-65
2023/03/16 10:38:39;;;;;;;12.50;7.32;;;;;;;;;;5150638;27;20050;-65
2023/03/16 10:41:17;;;;;;;13.73;7.38;;;5.60;99.90;;;;;;5134565;27;20615;-66
2023/03/16 10:43:56;;;;;;;13.15;7.22;;;6.40;99.90;;;;;;5137397;27;20070;-65
2023/03/16 10:46:24;;;;;;;12.38;7.38;;;6.30;99.90;;;;;;5116141;27;20173;-66
2023/03/16 10:48:58;;;;;;;12.73;7.30;;;6.00;99.90;;;;;;5137347;27;20044;-64
2023/03/16 10:51:33;;;;;;;13.27;7.40;;;6.10;99.90;;;;;;5116713;27;20039;-66
2023/03/16 10:54:36;;;;;;;15.20;7.28;;;5.80;99.90;;;;;;5146365;27;20045;-66
2023/03/16 10:57:33;;;;;;;16.95;7.47;;;6.10;99.90;;;;;;5136751;27;20062;-65
2023/03/16 11:00:20;;;;;;;17.93;7.30;;;5.90;99.90;;;;;;5137310;27;20088;-66
2023/03/16 11:02:48;;;;;;;;;;;5.10;99.90;;;;;;5149012;27;20047;-67
2023/03/16 11:05:17;;;;;;;12.27;6.82;;;6.30;99.90;;;;;;5155462;27;20344;-67
2023/03/16 11:07:57;;;;;;;12.20;7.38;;;6.10;99.90;;;;;;5155016;27;20046;-67
2023/03/16 11:10:32;;;;;;;14.27;7.28;;;5.80;99.90;;;;;;5154611;27;20486;-67
2023/03/16 11:13:16;;;;;;;11.52;7.40;;;6.40;99.90;;;;;;5154712;27;20089;-65
2023/03/16 11:15:48;;;;;;;11.77;6.68;;;6.10;99.90;;;;;;5136148;27;20051;-66
2023/03/16 11:18:28;;;;;;;12.25;6.85;;;6.40;99.90;;;;;;5154708;27;20047;-66
2023/03/16 11:20:55;;;;;;;18.40;7.43;;;6.70;99.90;;;;;;5154711;27;20402;-66
2023/03/16 11:23:33;;;;;;;15.07;7.55;;;6.50;99.90;;;;;;5154593;27;20375;-65
2023/03/16 11:26:04;;;;;;;9.80;6.20;;;6.70;99.90;;;;;;5154670;27;20050;-65
2023/03/16 11:28:37;;;;;;;11.80;6.40;;;6.50;99.90;;;;;;5154348;27;20406;-65
2023/03/16 11:31:09;;;;;;;10.73;6.32;;;6.70;99.90;;;;;;5154625;27;20045;-65
2023/03/16 11:33:35;;;;;;;10.60;6.35;;;6.70;99.90;;;;;;5153991;27;20050;-66
2023/03/16 11:36:28;;;;;;;12.05;5.78;;;6.60;99.90;;;;;;5154288;27;20112;-65
2023/03/16 11:39:03;;;;;;;10.32;5.90;;;6.50;99.90;;;;;;5136142;27;20065;-65
2023/03/16 11:41:52;;;;;;;10.55;5.95;;;6.90;99.90;;;;;;5154374;27;20053;-65
2023/03/16 11:44:43;;;;;;;9.75;5.60;;;7.60;99.90;;;;;;5153576;27;20545;-65
2023/03/16 11:47:35;;;;;;;10.43;5.80;;;7.10;99.90;;;;;;5105361;27;20050;-65
2023/03/16 11:50:04;;;;;;;8.48;5.43;;;7.00;99.90;;;;;;5154132;27;20154;-65
2023/03/16 11:53:08;;;;;;;9.48;5.53;;;7.00;99.90;;;;;;5154294;27;20053;-65
2023/03/16 11:55:36;;;;;;;10.68;5.68;;;7.00;99.90;;;;;;5154049;27;20073;-65
2023/03/16 11:58:10;;;;;;;10.27;5.50;;;7.20;99.90;;;;;;5154085;27;20052;-65
2023/03/16 12:01:11;;;;;;;8.52;5.55;;;7.00;99.90;;;;;;5154237;27;20058;-67
2023/03/16 12:03:57;;;;;;;8.60;5.60;;;7.30;99.90;;;;;;5153980;27;20046;-67
2023/03/16 12:06:59;;;;;;;10.37;5.40;;;7.50;99.90;;;;;;5153894;27;20046;-66
2023/03/16 12:09:34;;;;;;;10.13;5.63;;;7.60;99.90;;;;;;5153977;27;20373;-65
2023/03/16 12:12:21;;;;;;;11.02;6.35;;;7.60;99.90;;;;;;5118630;27;20047;-66
2023/03/16 12:15:15;;;;;;;8.18;5.32;;;7.80;99.90;;;;;;5135594;27;20710;-65
2023/03/16 12:17:42;;;;;;;10.18;5.32;;;7.60;99.90;;;;;;5139620;27;20054;-65
2023/03/16 12:20:20;;;;;;;9.82;5.07;;;7.70;99.90;;;;;;5153564;27;20042;-66
2023/03/16 12:22:57;;;;;;;13.68;5.25;;;9.00;99.90;;;;;;5153672;27;20129;-66
2023/03/16 12:25:30;;;;;;;9.23;5.13;;;8.40;99.90;;;;;;5153534;27;20046;-66
2023/03/16 12:27:59;;;;;;;9.70;5.57;;;8.40;99.90;;;;;;5152622;27;20046;-65
2023/03/16 12:30:29;;;;;;;7.93;5.65;;;8.40;99.90;;;;;;5153477;27;20034;-65
2023/03/16 12:33:06;;;;;;;11.40;5.20;;;8.60;99.90;;;;;;5153638;27;20168;-65
2023/03/16 12:35:43;;;;;;;7.85;4.90;;;8.70;99.90;;;;;;5153349;27;20046;-66
2023/03/16 12:38:15;;;;;;;8.70;5.20;;;8.70;99.90;;;;;;5151147;27;20474;-65
2023/03/16 12:40:53;;;;;;;8.05;5.35;;;8.40;99.90;;;;;;5151633;27;20348;-65
2023/03/16 12:43:35;;;;;;;8.73;5.20;;;8.70;99.90;;;;;;5153139;27;20075;-66
2023/03/16 12:46:00;;;;;;;10.25;5.13;;;8.30;99.90;;;;;;5153397;27;20414;-64
2023/03/16 12:48:30;;;;;;;5.63;4.63;;;8.90;99.90;;;;;;5153053;27;20038;-65
2023/03/16 12:50:59;;;;;;;8.68;4.72;;;8.90;99.90;;;;;;5134671;27;20387;-65
2023/03/16 12:53:43;;;;;;;8.45;5.30;;;8.80;99.90;;;;;;5152733;27;20477;-65
2023/03/16 12:56:15;;;;;;;8.77;5.75;;;9.00;99.90;;;;;;5153084;27;20046;-66
2023/03/16 12:58:49;;;;;;;8.68;5.25;;;8.70;99.90;;;;;;5153134;27;20043;-65
2023/03/16 13:01:27;;;;;;;9.63;5.00;;;8.60;99.90;;;;;;5153229;27;20540;-65
2023/03/16 13:04:00;;;;;;;9.68;5.22;;;8.60;99.90;;;;;;5153006;27;20492;-65
2023/03/16 13:06:32;;;;;;;8.57;5.45;;;8.80;99.90;;;;;;5152792;27;20113;-65
2023/03/16 13:08:59;;;;;;;9.27;5.07;;;8.60;99.90;;;;;;5153030;27;20047;-66
2023/03/16 13:11:26;;;;;;;10.73;5.55;;;8.80;99.90;;;;;;5152893;27;20129;-65
2023/03/16 13:14:07;;;;;;;7.43;5.00;;;8.40;99.90;;;;;;5152976;27;20051;-65